Enderby, Canada
Current Conditions -  °F | °C
As of 12:12 AM on Tuesday 27 Jan 2015 (Local Time) from CYLW Reporting Station
Moderate Fog Moderate Fog  
Wind Chill: 30°   Ceiling: 100
Heat Index: 30°   Visibility: 0.25mi
Dew Point: 30°   Wind: 2mph
Humidity: 100%   Direction: 40°NE
Pressure: 30"   Gusts: NA
Location:  50.55°N, 119.14°W
Report Text: CYLW 270812Z AUTO 04002KT 1/4SM FZFG VV001 M01/M01 A3000 RMK ICG SLP176
Loading
Personal Weather Stations






























Interactive Weather Map New forecast layout! Learn more

10-Day Weather Forecast

Advertisements
Track Severe Weather on mobile